createdAt,value
2023-11-25T00:00:48.410Z,0.00
2023-11-25T00:01:48.532Z,0.00
2023-11-25T00:02:48.504Z,0.00
2023-11-25T00:03:48.526Z,0.00
2023-11-25T00:04:48.564Z,0.00
2023-11-25T00:05:48.631Z,0.00
2023-11-25T00:06:48.656Z,0.00
2023-11-25T00:07:48.703Z,0.00
2023-11-25T00:08:48.752Z,0.00
2023-11-25T00:09:49.003Z,0.00
2023-11-25T00:10:48.911Z,0.00
2023-11-25T00:11:48.904Z,0.00
2023-11-25T00:12:48.941Z,0.00
2023-11-25T00:13:48.998Z,0.00
2023-11-25T00:14:49.058Z,0.00
2023-11-25T00:15:49.092Z,0.00
2023-11-25T00:16:49.247Z,0.00
2023-11-25T00:17:49.217Z,0.00
2023-11-25T00:18:49.323Z,0.00
2023-11-25T00:19:49.279Z,0.00
2023-11-25T00:20:49.330Z,0.00
2023-11-25T00:21:49.398Z,0.00
2023-11-25T00:22:49.425Z,0.00
2023-11-25T00:23:49.472Z,0.00
2023-11-25T00:24:49.571Z,0.00
2023-11-25T00:25:49.604Z,0.00
2023-11-25T00:26:49.612Z,0.00
2023-11-25T00:27:49.663Z,0.00
2023-11-25T00:28:49.711Z,0.00
2023-11-25T00:29:49.756Z,0.00
2023-11-25T00:30:49.803Z,0.00
2023-11-25T00:31:49.852Z,0.00
2023-11-25T00:32:49.923Z,0.00
2023-11-25T00:33:49.969Z,0.00
2023-11-25T00:34:50.067Z,0.00
2023-11-25T00:35:50.044Z,0.00
2023-11-25T00:36:50.089Z,0.00
2023-11-25T00:37:50.159Z,0.00
2023-11-25T00:38:50.186Z,0.00
2023-11-25T00:39:50.237Z,0.00
2023-11-25T00:40:50.396Z,0.00
2023-11-25T00:41:50.328Z,0.00
2023-11-25T00:42:50.410Z,0.00
2023-11-25T00:43:50.429Z,0.00
2023-11-25T00:45:33.247Z,0.00
2023-11-25T00:47:33.402Z,0.00
2023-11-25T00:48:33.290Z,0.00
2023-11-25T00:49:33.359Z,0.00
2023-11-25T00:50:33.383Z,0.00
2023-11-25T00:51:33.421Z,0.00
2023-11-25T00:52:33.503Z,0.00
2023-11-25T00:53:33.541Z,0.00
2023-11-25T00:54:33.563Z,0.00
2023-11-25T00:55:33.651Z,0.00
2023-11-25T00:56:33.660Z,0.00
2023-11-25T00:57:33.707Z,0.00
2023-11-25T00:58:33.815Z,0.00
2023-11-25T00:59:33.809Z,0.00
2023-11-25T01:00:33.859Z,0.00
2023-11-25T01:01:35.270Z,0.00
2023-11-25T01:02:34.328Z,0.00
2023-11-25T01:03:34.072Z,0.00
2023-11-25T01:04:34.065Z,0.00
2023-11-25T01:05:34.081Z,0.00
2023-11-25T01:06:34.130Z,0.00
2023-11-25T01:07:34.206Z,0.00
2023-11-25T01:08:34.234Z,0.00
2023-11-25T01:09:34.294Z,0.00
2023-11-25T01:10:34.333Z,0.00
2023-11-25T01:11:34.364Z,0.00
2023-11-25T01:12:34.452Z,0.00
2023-11-25T01:13:34.483Z,0.00
2023-11-25T01:14:34.508Z,0.00
2023-11-25T01:15:34.596Z,0.00
2023-11-25T01:16:34.666Z,0.00
2023-11-25T01:17:34.690Z,0.00
2023-11-25T01:18:34.693Z,0.00
2023-11-25T01:19:34.821Z,0.00
2023-11-25T01:20:34.850Z,0.00
2023-11-25T01:21:34.859Z,0.00
2023-11-25T01:22:34.914Z,0.00
2023-11-25T01:23:34.931Z,0.00
2023-11-25T01:24:34.977Z,0.00
2023-11-25T01:25:35.131Z,0.00
2023-11-25T01:26:35.072Z,0.00
2023-11-25T01:27:35.132Z,0.00
2023-11-25T01:28:35.201Z,0.00
2023-11-25T01:29:35.217Z,0.00
2023-11-25T01:30:35.267Z,0.00
2023-11-25T01:31:35.372Z,0.00
2023-11-25T01:32:35.423Z,0.00
2023-11-25T01:33:35.396Z,0.00
2023-11-25T01:34:35.498Z,0.00
2023-11-25T01:35:35.490Z,0.00
2023-11-25T01:36:35.544Z,0.00
2023-11-25T01:37:35.669Z,0.00
2023-11-25T01:38:35.628Z,0.00
2023-11-25T01:39:35.676Z,0.00
2023-11-25T01:40:35.751Z,0.00
2023-11-25T01:41:35.794Z,0.00
2023-11-25T01:42:35.849Z,0.00
2023-11-25T01:43:35.896Z,0.00
2023-11-25T01:44:35.908Z,0.00
2023-11-25T01:45:35.956Z,0.00
2023-11-25T01:46:36.122Z,0.00
2023-11-25T01:47:36.091Z,0.00
2023-11-25T01:48:36.111Z,0.00
2023-11-25T01:49:36.220Z,0.00
2023-11-25T01:50:36.190Z,0.00
2023-11-25T01:51:36.239Z,0.00
2023-11-25T01:52:36.377Z,0.00
2023-11-25T01:53:36.332Z,0.00
2023-11-25T01:54:36.385Z,0.00
2023-11-25T01:55:36.478Z,0.00
2023-11-25T01:56:36.474Z,0.00
2023-11-25T01:57:38.147Z,0.00
2023-11-25T01:58:36.586Z,0.00
2023-11-25T01:59:36.613Z,0.00
2023-11-25T02:00:36.660Z,0.00
2023-11-25T02:01:36.810Z,0.00
2023-11-25T02:02:36.957Z,0.00
2023-11-25T02:03:36.835Z,0.00
2023-11-25T02:04:36.910Z,0.00
2023-11-25T02:05:36.904Z,0.00
2023-11-25T02:06:36.947Z,0.00
2023-11-25T02:07:37.019Z,0.00
2023-11-25T02:08:37.044Z,0.00
2023-11-25T02:09:37.081Z,0.00
2023-11-25T02:10:37.184Z,0.00
2023-11-25T02:11:37.173Z,0.00
2023-11-25T02:12:37.228Z,0.00
2023-11-25T02:13:37.356Z,0.00
2023-11-25T02:14:37.325Z,0.00
2023-11-25T02:15:37.361Z,0.00
2023-11-25T02:16:37.513Z,0.00
2023-11-25T02:17:37.496Z,0.00
2023-11-25T02:18:37.499Z,0.00
2023-11-25T02:19:37.611Z,0.00
2023-11-25T02:20:37.594Z,0.00
2023-11-25T02:21:37.643Z,0.00
2023-11-25T02:22:37.875Z,0.00
2023-11-25T02:23:37.821Z,0.00
2023-11-25T02:24:37.787Z,0.00
2023-11-25T02:25:37.964Z,0.00
2023-11-25T02:26:38.011Z,0.00
2023-11-25T02:27:37.919Z,0.00
2023-11-25T02:28:37.986Z,0.00
2023-11-25T02:29:38.040Z,0.00
2023-11-25T02:30:38.071Z,0.00
2023-11-25T02:31:38.166Z,0.00
2023-11-25T02:32:38.208Z,0.00
2023-11-25T02:33:38.202Z,0.00
2023-11-25T02:34:38.273Z,0.00
2023-11-25T02:35:38.302Z,0.00
2023-11-25T02:36:38.346Z,0.00
2023-11-25T02:37:38.413Z,0.00
2023-11-25T02:38:38.444Z,0.00
2023-11-25T02:39:38.489Z,0.00
2023-11-25T02:40:38.586Z,0.00
2023-11-25T02:41:38.578Z,0.00
2023-11-25T02:42:38.645Z,0.00
2023-11-25T02:43:38.723Z,0.00
2023-11-25T02:44:38.805Z,0.00
2023-11-25T02:45:38.782Z,0.00
2023-11-25T02:46:38.833Z,0.00
2023-11-25T02:47:38.932Z,0.00
2023-11-25T02:48:38.965Z,0.00
2023-11-25T02:49:38.983Z,0.00
2023-11-25T02:50:39.005Z,0.00
2023-11-25T02:51:39.046Z,0.00
2023-11-25T02:52:39.114Z,0.00
2023-11-25T02:53:39.153Z,0.00
2023-11-25T02:54:39.187Z,0.00
2023-11-25T02:55:39.357Z,0.00
2023-11-25T02:56:39.278Z,0.00
2023-11-25T02:57:39.332Z,0.00
2023-11-25T02:58:39.467Z,0.00
2023-11-25T02:59:39.419Z,0.00
2023-11-25T03:00:39.466Z,0.00
2023-11-25T03:01:39.624Z,0.00
2023-11-25T03:02:39.643Z,0.00
2023-11-25T03:03:39.622Z,0.00
2023-11-25T03:04:39.695Z,0.00
2023-11-25T03:05:39.699Z,0.00
2023-11-25T03:06:39.749Z,0.00
2023-11-25T03:07:39.841Z,0.00
2023-11-25T03:08:39.841Z,0.00
2023-11-25T03:09:39.891Z,0.00
2023-11-25T03:10:40.000Z,0.00
2023-11-25T03:11:39.978Z,0.00
2023-11-25T03:12:40.036Z,0.00
2023-11-25T03:13:40.097Z,0.00
2023-11-25T03:14:40.120Z,0.00
2023-11-25T03:15:40.166Z,0.00
2023-11-25T03:16:40.376Z,0.00
2023-11-25T03:17:40.349Z,0.00
2023-11-25T03:18:40.311Z,0.00
2023-11-25T03:19:40.429Z,0.00
2023-11-25T03:20:40.406Z,0.00
2023-11-25T03:21:40.450Z,0.00
2023-11-25T03:22:40.503Z,0.00
2023-11-25T03:23:40.547Z,0.00
2023-11-25T03:24:40.586Z,0.00
2023-11-25T03:25:41.115Z,0.00
2023-11-25T03:26:40.740Z,0.00
2023-11-25T03:27:40.740Z,0.00
2023-11-25T03:28:40.790Z,0.00
2023-11-25T03:29:40.821Z,0.00
2023-11-25T03:30:40.872Z,0.00
2023-11-25T03:31:40.973Z,0.00
2023-11-25T03:32:41.041Z,0.00
2023-11-25T03:33:41.040Z,0.00
2023-11-25T03:34:41.162Z,0.00
2023-11-25T03:35:41.106Z,0.00
2023-11-25T03:36:41.146Z,0.00
2023-11-25T03:37:41.216Z,0.00
2023-11-25T03:38:41.252Z,0.00
2023-11-25T03:39:41.291Z,0.00
2023-11-25T03:40:41.389Z,0.00
2023-11-25T03:41:41.385Z,0.00
2023-11-25T03:42:41.428Z,0.00
2023-11-25T03:43:41.531Z,0.00
2023-11-25T03:44:41.521Z,0.00
2023-11-25T03:45:41.568Z,0.00
2023-11-25T03:46:41.717Z,0.00
2023-11-25T03:47:41.718Z,0.00
2023-11-25T03:48:41.717Z,0.00
2023-11-25T03:49:41.813Z,0.00
2023-11-25T03:50:41.803Z,0.00
2023-11-25T03:51:41.873Z,0.00
2023-11-25T03:52:42.050Z,0.00
2023-11-25T03:53:41.951Z,0.00
2023-11-25T03:54:41.992Z,0.00
2023-11-25T03:55:42.104Z,0.00
2023-11-25T03:56:42.097Z,0.00
2023-11-25T03:57:42.128Z,0.00
2023-11-25T03:58:42.215Z,0.00
2023-11-25T03:59:42.222Z,0.00
2023-11-25T04:00:42.269Z,0.00
2023-11-25T04:01:42.492Z,0.00
2023-11-25T04:02:42.390Z,0.00
2023-11-25T04:03:42.439Z,0.00
2023-11-25T04:04:42.539Z,0.00
2023-11-25T04:05:42.527Z,0.00
2023-11-25T04:06:42.552Z,0.00
2023-11-25T04:07:42.694Z,0.00
2023-11-25T04:08:42.643Z,0.00
2023-11-25T04:09:42.683Z,0.00
2023-11-25T04:10:42.752Z,0.00
2023-11-25T04:11:42.779Z,0.00
2023-11-25T04:12:42.827Z,0.00
2023-11-25T04:13:42.969Z,0.00
2023-11-25T04:14:42.916Z,0.00
2023-11-25T04:15:42.970Z,0.00
2023-11-25T04:16:43.056Z,0.00
2023-11-25T04:17:43.224Z,0.00
2023-11-25T04:18:43.109Z,0.00
2023-11-25T04:19:43.176Z,0.00
2023-11-25T04:20:43.305Z,0.00
2023-11-25T04:21:43.260Z,0.00
2023-11-25T04:22:43.347Z,0.00
2023-11-25T04:23:43.335Z,0.00
2023-11-25T04:24:43.382Z,0.00
2023-11-25T04:25:43.439Z,0.00
2023-11-25T04:26:43.485Z,0.00
2023-11-25T04:27:43.516Z,0.00
2023-11-25T04:28:43.661Z,0.00
2023-11-25T04:29:43.621Z,0.00
2023-11-25T04:30:43.661Z,0.00
2023-11-25T04:31:43.752Z,0.00
2023-11-25T04:32:43.849Z,0.00
2023-11-25T04:33:43.801Z,0.00
2023-11-25T04:34:43.895Z,0.00
2023-11-25T04:35:43.893Z,0.00
2023-11-25T04:36:43.939Z,0.00
2023-11-25T04:37:44.095Z,0.00
2023-11-25T04:38:44.034Z,0.00
2023-11-25T04:39:44.087Z,0.00
2023-11-25T04:40:44.214Z,0.00
2023-11-25T04:41:44.200Z,0.00
2023-11-25T04:42:44.523Z,0.00
2023-11-25T04:43:44.279Z,0.00
2023-11-25T04:44:44.317Z,0.00
2023-11-25T04:45:44.364Z,0.00
2023-11-25T04:46:44.481Z,0.00
2023-11-25T04:47:44.512Z,0.00
2023-11-25T04:48:44.495Z,0.00
2023-11-25T04:49:44.593Z,0.00
2023-11-25T04:50:46.336Z,0.00
2023-11-25T04:51:44.636Z,0.00
2023-11-25T04:52:44.881Z,0.00
2023-11-25T04:53:44.757Z,0.00
2023-11-25T04:54:44.777Z,0.00
2023-11-25T04:55:44.866Z,0.00
2023-11-25T04:56:44.869Z,0.00
2023-11-25T04:57:44.949Z,0.00
2023-11-25T04:58:45.019Z,0.00
2023-11-25T04:59:45.009Z,0.00
2023-11-25T05:00:45.083Z,0.00
2023-11-25T05:01:45.225Z,0.00
2023-11-25T05:02:45.251Z,0.00
2023-11-25T05:03:45.262Z,0.00
2023-11-25T05:04:45.259Z,0.00
2023-11-25T05:05:45.293Z,0.00
2023-11-25T05:06:45.837Z,0.00
2023-11-25T05:07:45.473Z,0.00
2023-11-25T05:08:45.427Z,0.00
2023-11-25T05:09:45.496Z,0.00
2023-11-25T05:10:45.537Z,0.00
2023-11-25T05:11:45.567Z,0.00
2023-11-25T05:12:45.619Z,0.00
2023-11-25T05:14:45.713Z,0.00
2023-11-25T05:15:45.754Z,0.00
2023-11-25T05:16:45.946Z,0.00
2023-11-25T05:17:45.910Z,0.00
2023-11-25T05:18:45.892Z,0.00
2023-11-25T05:19:45.968Z,0.00
2023-11-25T05:20:45.985Z,0.00
2023-11-25T05:21:46.056Z,0.00
2023-11-25T05:22:46.420Z,0.00
2023-11-25T05:23:46.130Z,0.00
2023-11-25T05:24:46.171Z,0.00
2023-11-25T05:25:46.264Z,0.00
2023-11-25T05:26:46.262Z,0.00
2023-11-25T05:27:46.317Z,0.00
2023-11-25T05:28:46.432Z,0.00
2023-11-25T05:29:46.412Z,0.00
2023-11-25T05:31:46.524Z,0.00
2023-11-25T05:32:46.586Z,0.00
2023-11-25T05:33:46.589Z,0.00
2023-11-25T05:34:46.704Z,0.00
2023-11-25T05:35:46.681Z,0.00
2023-11-25T05:36:46.725Z,0.00
2023-11-25T05:37:47.020Z,0.00
2023-11-25T05:38:46.833Z,0.00
2023-11-25T05:39:46.933Z,0.00
2023-11-25T05:40:46.973Z,0.00
2023-11-25T05:41:46.987Z,0.00
2023-11-25T05:42:47.008Z,0.00
2023-11-25T05:43:47.092Z,0.00
2023-11-25T05:44:47.095Z,0.00
2023-11-25T05:45:47.149Z,0.00
2023-11-25T05:46:47.287Z,0.00
2023-11-25T05:47:47.275Z,0.00
2023-11-25T05:48:47.279Z,0.00
2023-11-25T05:50:47.371Z,0.00
2023-11-25T05:51:47.418Z,0.00
2023-11-25T05:52:47.507Z,0.00
2023-11-25T05:53:47.511Z,0.00
2023-11-25T05:54:47.556Z,0.00
2023-11-25T05:55:47.657Z,0.00
2023-11-25T05:56:47.670Z,0.00
2023-11-25T05:57:47.922Z,0.00
2023-11-25T05:58:47.786Z,0.00
2023-11-25T05:59:47.786Z,0.00
2023-11-25T06:00:47.833Z,0.00
2023-11-25T06:01:47.956Z,0.00
2023-11-25T06:02:47.926Z,0.00
2023-11-25T06:03:48.053Z,0.00
2023-11-25T06:04:48.116Z,0.00
2023-11-25T06:05:48.071Z,0.00
2023-11-25T06:06:48.111Z,0.00
2023-11-25T06:07:48.193Z,0.00
2023-11-25T06:08:48.202Z,0.00
2023-11-25T06:09:48.248Z,0.00
2023-11-25T06:10:48.670Z,0.00
2023-11-25T06:11:48.341Z,0.00
2023-11-25T06:12:48.441Z,0.00
2023-11-25T06:13:48.503Z,0.00
2023-11-25T06:14:48.510Z,0.00
2023-11-25T06:15:48.567Z,0.00
2023-11-25T06:16:48.592Z,0.00
2023-11-25T06:17:48.719Z,0.00
2023-11-25T06:18:48.706Z,0.00
2023-11-25T06:19:48.817Z,0.00
2023-11-25T06:20:48.808Z,0.00
2023-11-25T06:21:48.816Z,0.00
2023-11-25T06:22:49.066Z,0.00
2023-11-25T06:23:48.895Z,0.00
2023-11-25T06:24:48.948Z,0.00
2023-11-25T06:25:49.052Z,0.00
2023-11-25T06:26:49.060Z,4.00
2023-11-25T06:27:49.079Z,4.00
2023-11-25T06:28:49.197Z,4.00
2023-11-25T06:29:49.195Z,4.00
2023-11-25T06:30:49.229Z,12.00
2023-11-25T06:31:49.462Z,8.00
2023-11-25T06:32:49.336Z,12.00
2023-11-25T06:33:49.422Z,12.00
2023-11-25T06:34:49.439Z,12.00
2023-11-25T06:35:49.450Z,12.00
2023-11-25T06:36:49.497Z,16.00
2023-11-25T06:37:49.680Z,16.00
2023-11-25T06:38:49.622Z,20.00
2023-11-25T06:39:49.630Z,24.00
2023-11-25T06:40:49.702Z,28.00
2023-11-25T06:41:49.725Z,32.00
2023-11-25T06:42:49.773Z,40.00
2023-11-25T06:43:49.851Z,44.00
2023-11-25T06:44:49.861Z,48.00
2023-11-25T06:45:49.936Z,56.00
2023-11-25T06:46:50.059Z,60.00
2023-11-25T06:47:50.017Z,68.00
2023-11-25T06:48:50.050Z,76.00
2023-11-25T06:49:50.109Z,84.00
2023-11-25T06:50:50.138Z,92.00
2023-11-25T06:51:50.184Z,104.00
2023-11-25T06:52:50.322Z,116.00
2023-11-25T06:53:50.278Z,128.00
2023-11-25T06:54:50.322Z,144.00
2023-11-25T06:55:50.402Z,156.00
2023-11-25T06:56:50.416Z,172.00
2023-11-25T06:57:50.849Z,192.00
2023-11-25T06:58:50.540Z,208.00
2023-11-25T06:59:50.576Z,220.00
2023-11-25T07:00:50.653Z,236.00
2023-11-25T07:01:50.784Z,256.00
2023-11-25T07:02:50.735Z,280.00
2023-11-25T07:03:50.741Z,312.00
2023-11-25T07:04:50.879Z,344.00
2023-11-25T07:05:50.830Z,380.00
2023-11-25T07:06:50.875Z,412.00
2023-11-25T07:07:50.967Z,436.00
2023-11-25T07:08:50.975Z,452.00
2023-11-25T07:09:51.021Z,464.00
2023-11-25T07:10:51.120Z,472.00
2023-11-25T07:11:51.109Z,488.00
2023-11-25T07:12:51.152Z,508.00
2023-11-25T07:13:51.243Z,540.00
2023-11-25T07:14:51.260Z,576.00
2023-11-25T07:15:51.290Z,616.00
2023-11-25T07:16:51.386Z,660.00
2023-11-25T07:17:51.481Z,696.00
2023-11-25T07:18:51.434Z,720.00
2023-11-25T07:19:51.533Z,740.00
2023-11-25T07:20:54.198Z,752.00
2023-11-25T07:21:51.585Z,764.00
2023-11-25T07:22:51.653Z,780.00
2023-11-25T07:23:51.661Z,820.00
2023-11-25T07:24:51.708Z,852.00
2023-11-25T07:25:51.765Z,884.00
2023-11-25T07:26:51.803Z,916.00
2023-11-25T07:27:51.853Z,952.00
2023-11-25T07:28:51.945Z,1012.00
2023-11-25T07:29:51.943Z,1072.00
2023-11-25T07:30:52.014Z,1124.00
2023-11-25T07:31:52.096Z,1148.00
2023-11-25T07:32:52.150Z,1144.00
2023-11-25T07:33:52.145Z,1148.00
2023-11-25T07:34:52.197Z,1188.00
2023-11-25T07:35:52.216Z,1256.00
2023-11-25T07:36:52.268Z,1332.00
2023-11-25T07:37:52.332Z,1392.00
2023-11-25T07:38:52.359Z,1436.00
2023-11-25T07:39:52.404Z,1504.00
2023-11-25T07:40:52.509Z,1592.00
2023-11-25T07:41:52.499Z,1548.00
2023-11-25T07:42:52.549Z,1504.00
2023-11-25T07:43:52.619Z,1452.00
2023-11-25T07:44:52.639Z,1404.00
2023-11-25T07:45:52.697Z,1432.00
2023-11-25T07:46:52.797Z,1520.00
2023-11-25T07:47:52.810Z,1624.00
2023-11-25T07:48:52.839Z,1788.00
2023-11-25T07:49:52.948Z,1908.00
2023-11-25T07:50:52.919Z,1992.00
2023-11-25T07:51:52.972Z,2100.00
2023-11-25T07:52:53.147Z,2224.00
2023-11-25T07:53:53.061Z,2208.00
2023-11-25T07:54:53.104Z,2144.00
2023-11-25T07:55:53.262Z,2056.00
2023-11-25T07:56:53.202Z,2064.00
2023-11-25T07:57:53.244Z,2144.00
2023-11-25T07:58:53.368Z,2232.00
2023-11-25T07:59:53.337Z,2268.00
2023-11-25T08:00:53.382Z,2264.00
2023-11-25T08:01:53.539Z,2256.00
2023-11-25T08:02:53.640Z,2196.00
2023-11-25T08:03:53.601Z,2044.00
2023-11-25T08:04:53.650Z,1968.00
2023-11-25T08:05:53.640Z,1876.00
2023-11-25T08:06:53.670Z,1828.00
2023-11-25T08:07:53.852Z,1924.00
2023-11-25T08:08:53.778Z,1896.00
2023-11-25T08:09:53.812Z,1948.00
2023-11-25T08:10:53.877Z,1996.00
2023-11-25T08:11:53.898Z,1964.00
2023-11-25T08:12:53.949Z,1956.00
2023-11-25T08:13:54.070Z,2048.00
2023-11-25T08:14:54.074Z,2120.00
2023-11-25T08:15:54.124Z,2024.00
2023-11-25T08:16:54.162Z,1864.00
2023-11-25T08:17:54.219Z,1912.00
2023-11-25T08:18:54.229Z,2292.00
2023-11-25T08:19:54.280Z,2736.00
2023-11-25T08:20:54.330Z,2876.00
2023-11-25T08:21:54.398Z,2828.00
2023-11-25T08:22:54.593Z,2788.00
2023-11-25T08:23:54.465Z,2692.00
2023-11-25T08:24:54.512Z,2748.00
2023-11-25T08:25:54.587Z,2876.00
2023-11-25T08:26:54.601Z,3044.00
2023-11-25T08:27:54.657Z,3232.00
2023-11-25T08:28:54.775Z,3428.00
2023-11-25T08:29:54.744Z,3468.00
2023-11-25T08:30:54.800Z,3300.00
2023-11-25T08:31:54.957Z,2952.00
2023-11-25T08:32:54.961Z,2644.00
2023-11-25T08:33:54.935Z,2516.00
2023-11-25T08:34:55.025Z,2276.00
2023-11-25T08:35:55.030Z,1764.00
2023-11-25T08:36:55.200Z,1164.00
2023-11-25T08:37:55.218Z,1032.00
2023-11-25T08:38:55.173Z,828.00
2023-11-25T08:39:55.220Z,812.00
2023-11-25T08:40:55.300Z,1108.00
2023-11-25T08:41:55.342Z,1312.00
2023-11-25T08:42:55.364Z,1732.00
2023-11-25T08:43:55.445Z,2548.00
2023-11-25T08:44:55.458Z,3080.00
2023-11-25T08:45:55.525Z,3116.00
2023-11-25T08:46:55.583Z,2452.00
2023-11-25T08:47:55.664Z,2204.00
2023-11-25T08:48:55.647Z,2252.00
2023-11-25T08:49:55.750Z,2260.00
2023-11-25T08:50:55.738Z,1744.00
2023-11-25T08:51:55.787Z,1592.00
2023-11-25T08:52:55.950Z,1480.00
2023-11-25T08:53:55.905Z,1188.00
2023-11-25T08:54:55.937Z,1424.00
2023-11-25T08:55:56.017Z,1816.00
2023-11-25T08:56:56.102Z,2344.00
2023-11-25T08:57:56.070Z,2444.00
2023-11-25T08:59:04.758Z,2560.00
2023-11-25T08:59:56.163Z,2624.00
2023-11-25T09:00:56.210Z,2600.00
2023-11-25T09:01:56.317Z,2564.00
2023-11-25T09:02:56.381Z,2584.00
2023-11-25T09:03:56.368Z,2744.00
2023-11-25T09:05:03.954Z,2988.00
2023-11-25T09:05:56.448Z,3280.00
2023-11-25T09:06:56.501Z,3564.00
2023-11-25T09:07:57.235Z,3836.00
2023-11-25T09:08:56.588Z,4140.00
2023-11-25T09:09:56.661Z,4312.00
2023-11-25T09:10:56.705Z,4176.00
2023-11-25T09:11:56.735Z,4012.00
2023-11-25T09:12:56.776Z,4100.00
2023-11-25T09:13:56.917Z,4296.00
2023-11-25T09:14:56.872Z,4516.00
2023-11-25T09:15:56.953Z,4720.00
2023-11-25T09:16:57.004Z,5004.00
2023-11-25T09:17:57.058Z,5716.00
2023-11-25T09:19:00.401Z,6420.00
2023-11-25T09:19:57.183Z,6876.00
2023-11-25T09:20:57.158Z,7160.00
2023-11-25T09:21:57.206Z,7592.00
2023-11-25T09:22:57.353Z,8084.00
2023-11-25T09:23:57.310Z,8308.00
2023-11-25T09:24:57.351Z,8400.00
2023-11-25T09:25:57.454Z,8560.00
2023-11-25T09:26:57.457Z,8332.00
2023-11-25T09:27:57.494Z,7900.00
2023-11-25T09:28:57.573Z,7464.00
2023-11-25T09:30:45.277Z,6896.00
2023-11-25T09:31:45.333Z,6836.00
2023-11-25T09:32:45.615Z,6784.00
2023-11-25T09:33:45.440Z,6620.00
2023-11-25T09:34:45.498Z,6556.00
2023-11-25T09:35:45.520Z,6528.00
2023-11-25T09:36:45.570Z,6544.00
2023-11-25T09:37:45.689Z,6472.00
2023-11-25T09:38:45.675Z,6380.00
2023-11-25T09:39:45.716Z,6280.00
2023-11-25T09:40:45.794Z,6200.00
2023-11-25T09:41:45.833Z,6284.00
2023-11-25T09:42:45.871Z,6292.00
2023-11-25T09:43:45.939Z,5964.00
2023-11-25T09:44:45.959Z,5588.00
2023-11-25T09:45:46.023Z,5412.00
2023-11-25T09:46:46.111Z,5192.00
2023-11-25T09:47:46.585Z,5340.00
2023-11-25T09:48:46.156Z,5660.00
2023-11-25T09:49:46.285Z,6308.00
2023-11-25T09:50:46.255Z,6752.00
2023-11-25T09:51:46.322Z,7116.00
2023-11-25T09:52:46.411Z,7620.00
2023-11-25T09:53:46.445Z,8088.00
2023-11-25T09:54:46.449Z,7928.00
2023-11-25T09:55:46.527Z,7532.00
2023-11-25T09:56:46.551Z,7092.00
2023-11-25T09:57:46.624Z,6188.00
2023-11-25T09:58:46.673Z,5264.00
2023-11-25T09:59:46.705Z,4748.00
2023-11-25T10:00:46.748Z,4480.00
2023-11-25T10:01:46.899Z,4496.00
2023-11-25T10:02:46.975Z,4736.00
2023-11-25T10:03:47.076Z,5116.00
2023-11-25T10:04:46.947Z,5368.00
2023-11-25T10:05:46.992Z,5656.00
2023-11-25T10:06:47.046Z,5568.00
2023-11-25T10:07:47.115Z,5444.00
2023-11-25T10:08:47.141Z,5044.00
2023-11-25T10:09:47.188Z,4728.00
2023-11-25T10:10:47.274Z,4760.00
2023-11-25T10:11:47.286Z,4576.00
2023-11-25T10:12:47.350Z,4652.00
2023-11-25T10:13:47.419Z,5388.00
2023-11-25T10:14:47.484Z,6168.00
2023-11-25T10:15:47.643Z,6612.00
2023-11-25T10:16:47.552Z,6708.00
2023-11-25T10:17:47.601Z,6596.00
2023-11-25T10:18:47.637Z,5412.00
2023-11-25T10:19:47.712Z,4024.00
2023-11-25T10:20:47.731Z,3396.00
2023-11-25T10:21:47.776Z,3648.00
2023-11-25T10:22:47.843Z,4012.00
2023-11-25T10:23:47.875Z,4212.00
2023-11-25T10:24:47.932Z,4260.00
2023-11-25T10:25:47.980Z,4264.00
2023-11-25T10:26:48.032Z,5000.00
2023-11-25T10:27:48.093Z,5996.00
2023-11-25T10:28:48.243Z,6376.00
2023-11-25T10:29:48.196Z,7432.00
2023-11-25T10:30:48.224Z,8544.00
2023-11-25T10:31:48.297Z,9424.00
2023-11-25T10:32:48.350Z,9316.00
2023-11-25T10:33:48.464Z,8472.00
2023-11-25T10:34:48.483Z,7516.00
2023-11-25T10:35:48.471Z,7180.00
2023-11-25T10:36:48.514Z,6648.00
2023-11-25T10:37:48.624Z,5876.00
2023-11-25T10:38:48.661Z,5560.00
2023-11-25T10:39:48.666Z,5692.00
2023-11-25T10:40:48.736Z,6896.00
2023-11-25T10:41:48.763Z,8236.00
2023-11-25T10:42:48.816Z,8316.00
2023-11-25T10:43:48.937Z,7684.00
2023-11-25T10:44:48.912Z,6836.00
2023-11-25T10:45:49.015Z,5584.00
2023-11-25T10:46:49.289Z,5076.00
2023-11-25T10:47:49.080Z,5104.00
2023-11-25T10:48:49.108Z,5352.00
2023-11-25T10:49:49.171Z,5760.00
2023-11-25T10:50:49.208Z,6576.00
2023-11-25T10:51:49.261Z,7700.00
2023-11-25T10:52:49.332Z,8744.00
2023-11-25T10:53:49.356Z,9036.00
2023-11-25T10:54:49.408Z,8628.00
2023-11-25T10:55:49.501Z,8108.00
2023-11-25T10:56:49.577Z,7584.00
2023-11-25T10:57:49.680Z,6436.00
2023-11-25T10:58:49.612Z,5708.00
2023-11-25T10:59:51.544Z,6084.00
2023-11-25T11:00:49.705Z,5556.00
2023-11-25T11:01:49.891Z,5180.00
2023-11-25T11:02:49.899Z,5476.00
2023-11-25T11:03:49.862Z,7408.00
2023-11-25T11:04:49.906Z,8644.00
2023-11-25T11:05:49.963Z,10156.00
2023-11-25T11:06:50.015Z,10556.00
2023-11-25T11:07:50.123Z,9504.00
2023-11-25T11:08:50.102Z,7404.00
2023-11-25T11:09:50.150Z,7928.00
2023-11-25T11:10:50.240Z,8848.00
2023-11-25T11:11:50.255Z,9276.00
2023-11-25T11:12:50.301Z,9236.00
2023-11-25T11:13:50.385Z,10840.00
2023-11-25T11:14:50.401Z,12768.00
2023-11-25T11:15:50.448Z,13044.00
2023-11-25T11:16:50.518Z,13876.00
2023-11-25T11:17:50.594Z,12812.00
2023-11-25T11:18:50.660Z,13052.00
2023-11-25T11:19:50.649Z,14180.00
2023-11-25T11:20:50.704Z,13532.00
2023-11-25T11:21:50.761Z,11948.00
2023-11-25T11:22:50.842Z,10136.00
2023-11-25T11:23:50.848Z,9600.00
2023-11-25T11:24:50.904Z,9100.00
2023-11-25T11:25:50.962Z,8868.00
2023-11-25T11:26:50.999Z,7820.00
2023-11-25T11:27:51.049Z,8340.00
2023-11-25T11:28:51.211Z,7960.00
2023-11-25T11:29:51.166Z,8448.00
2023-11-25T11:30:51.200Z,9600.00
2023-11-25T11:31:51.333Z,9372.00
2023-11-25T11:32:51.401Z,10460.00
2023-11-25T11:33:51.380Z,10196.00
2023-11-25T11:34:51.455Z,11456.00
2023-11-25T11:35:51.464Z,13984.00
2023-11-25T11:36:51.503Z,14380.00
2023-11-25T11:37:51.654Z,13404.00
2023-11-25T11:38:51.611Z,13724.00
2023-11-25T11:39:51.669Z,12132.00
2023-11-25T11:40:51.709Z,9700.00
2023-11-25T11:41:51.763Z,9004.00
2023-11-25T11:42:51.813Z,9880.00
2023-11-25T11:43:51.900Z,11888.00
2023-11-25T11:44:51.913Z,14844.00
2023-11-25T11:45:51.990Z,10880.00
2023-11-25T11:46:52.065Z,10660.00
2023-11-25T11:47:52.127Z,8840.00
2023-11-25T11:48:52.114Z,7820.00
2023-11-25T11:49:52.236Z,8060.00
2023-11-25T11:50:52.228Z,7212.00
2023-11-25T11:51:52.270Z,10592.00
2023-11-25T11:52:52.348Z,12348.00
2023-11-25T11:53:52.378Z,13912.00
2023-11-25T11:54:52.419Z,13800.00
2023-11-25T11:55:52.486Z,18400.00
2023-11-25T11:56:52.525Z,16412.00
2023-11-25T11:57:52.577Z,18560.00
2023-11-25T11:58:52.655Z,12316.00
2023-11-25T11:59:52.680Z,10864.00
2023-11-25T12:00:52.730Z,8248.00
2023-11-25T12:01:52.825Z,6500.00
2023-11-25T12:02:52.828Z,6424.00
2023-11-25T12:03:52.960Z,6620.00
2023-11-25T12:04:53.112Z,8656.00
2023-11-25T12:05:53.217Z,11292.00
2023-11-25T12:06:53.044Z,11084.00
2023-11-25T12:07:53.113Z,17856.00
2023-11-25T12:08:53.140Z,14572.00
2023-11-25T12:09:53.192Z,20736.00
2023-11-25T12:10:53.312Z,12928.00
2023-11-25T12:11:53.294Z,9748.00
2023-11-25T12:12:53.348Z,8720.00
2023-11-25T12:13:53.410Z,8120.00
2023-11-25T12:14:55.249Z,7960.00
2023-11-25T12:15:53.505Z,8664.00
2023-11-25T12:16:53.656Z,9704.00
2023-11-25T12:17:53.677Z,8992.00
2023-11-25T12:18:53.674Z,8500.00
2023-11-25T12:19:53.758Z,9160.00
2023-11-25T12:20:53.763Z,9828.00
2023-11-25T12:21:53.838Z,10256.00
2023-11-25T12:22:53.876Z,10580.00
2023-11-25T12:23:53.919Z,10852.00
2023-11-25T12:24:53.978Z,11648.00
2023-11-25T12:25:54.061Z,11616.00
2023-11-25T12:26:54.080Z,10740.00
2023-11-25T12:27:54.127Z,8992.00
2023-11-25T12:28:54.332Z,8084.00
2023-11-25T12:29:54.238Z,6740.00
2023-11-25T12:30:54.291Z,6728.00
2023-11-25T12:31:54.385Z,6476.00
2023-11-25T12:32:54.492Z,6612.00
2023-11-25T12:33:54.440Z,7364.00
2023-11-25T12:34:54.510Z,8112.00
2023-11-25T12:35:54.574Z,9020.00
2023-11-25T12:36:54.593Z,12124.00
2023-11-25T12:38:04.882Z,14304.00
2023-11-25T12:38:54.703Z,14080.00
2023-11-25T12:39:54.830Z,13260.00
2023-11-25T12:40:54.865Z,10564.00
2023-11-25T12:41:54.857Z,10808.00
2023-11-25T12:42:54.902Z,10268.00
2023-11-25T12:43:54.979Z,9564.00
2023-11-25T12:44:55.230Z,7876.00
2023-11-25T12:45:55.065Z,7840.00
2023-11-25T12:46:55.240Z,7092.00
2023-11-25T12:47:55.196Z,6740.00